Latest Weather Observations for Stawell

IDV60801

Issued at 6:02 pm EST Wednesday 2 September 2015 (issued every 30 minutes, with the page automatically refreshed every 10 minutes)

About weather observations | Map of weather stations | Latest weather observations for VIC | Other Formats
Station Details ID: 079105 Name: STAWELL AERODROME Lat: -37.07 Lon: 142.74 Height: 235.36 m
Data from the previous 72 hours. | See also: Recent months at Stawell
Date/Time
EST
Temp
°C
App
Temp
°C
Dew
Point
Rel
Hum
%
Delta-T
°C
Wind Press
QNH
hPa
Press
MSL
hPa
Rain
since 9 am
mm
Dir
 
Spd
km/h
Gust
km/h
Spd
kts
Gust
kts
02/06:00pm 9.5 8.3 9.4 99 0.1 E 6 9 3 5 1004.5 1005.4 10.6
02/05:30pm 9.6 8.1 9.3 98 0.2 E 7 13 4 7 1004.3 - 10.6
02/05:00pm 9.6 7.8 9.5 99 0.1 E 9 13 5 7 1004.3 - 10.6
02/04:30pm 9.3 6.7 9.2 99 0.0 E 13 22 7 12 1004.1 - 10.6
02/04:00pm 9.0 5.9 8.9 99 0.0 E 15 20 8 11 1003.9 - 9.6
02/03:30pm 9.2 7.7 9.1 99 0.0 ENE 7 17 4 9 1005.0 - 7.2
02/03:00pm 9.2 7.9 9.1 99 0.0 WNW 6 9 3 5 1005.8 1006.7 5.4
02/02:30pm 9.6 6.9 9.0 96 0.3 NW 13 19 7 10 1006.0 - 3.8
02/02:00pm 9.8 8.2 8.6 92 0.6 NNE 7 11 4 6 1005.7 - 2.2
02/01:30pm 10.5 8.2 7.6 82 1.4 N 9 13 5 7 1006.0 - 0.4
02/01:00pm 10.5 8.6 7.6 82 1.4 NNE 7 9 4 5 1006.1 - 0.4
02/12:30pm 10.4 8.1 7.6 83 1.4 ENE 9 13 5 7 1006.6 - 0.4
02/12:00pm 10.7 7.6 7.4 80 1.6 NE 13 19 7 10 1007.4 1008.3 0.2
02/11:30am 11.1 7.2 7.2 77 1.9 NE 17 24 9 13 1007.4 - 0.0
02/11:00am 11.2 6.9 6.9 75 2.1 NE 19 28 10 15 1008.0 - 0.0
02/10:30am 10.4 5.8 6.5 77 1.9 NNE 20 32 11 17 1008.8 - 0.0
02/10:00am 11.0 6.8 5.5 69 2.6 N 17 24 9 13 1009.2 - 0.0
02/09:30am 11.3 8.0 4.5 63 3.1 N 11 15 6 8 1009.4 - 0.0
02/09:00am 10.8 5.9 4.0 63 3.1 NE 19 26 10 14 1009.1 1010.0 0.0
02/08:30am 10.5 6.0 4.0 64 2.9 NE 17 24 9 13 1009.1 - 0.0
02/08:00am 10.4 5.4 3.7 63 3.0 NE 19 28 10 15 1008.9 - 0.0
02/07:30am 10.3 5.7 3.6 63 3.0 NE 17 26 9 14 1009.0 - 0.0
02/07:00am 10.1 5.8 3.4 63 3.0 NE 15 24 8 13 1009.2 - 0.0
02/06:30am 9.9 6.4 3.4 64 2.9 NE 11 19 6 10 1009.2 - 0.0
02/06:00am 9.7 6.2 3.7 66 2.7 NE 11 17 6 9 1009.3 1010.2 0.0
02/05:30am 8.9 6.2 3.5 69 2.4 E 7 11 4 6 1009.4 - 0.0
02/05:00am 9.1 6.1 3.9 70 2.3 E 9 13 5 7 1009.5 - 0.0
02/04:30am 8.8 6.1 3.6 70 2.3 SE 7 11 4 6 1009.6 - 0.0
02/04:00am 9.6 7.1 3.6 66 2.6 E 6 7 3 4 1009.8 - 0.0
02/03:30am 10.0 7.5 3.7 65 2.8 E 6 11 3 6 1010.0 - 0.0
02/03:00am 10.4 6.9 3.7 63 3.0 ENE 11 15 6 8 1010.1 1011.0 0.0
02/02:30am 10.6 6.3 3.4 61 3.2 NE 15 20 8 11 1010.6 - 0.0
02/02:00am 10.8 6.9 3.6 61 3.2 NE 13 19 7 10 1010.7 - 0.0
02/01:30am 10.9 7.4 3.7 61 3.2 ENE 11 15 6 8 1010.9 - 0.0
02/01:00am 11.0 6.8 3.8 61 3.2 NE 15 22 8 12 1010.9 - 0.0
02/12:30am 11.1 6.9 3.9 61 3.2 ENE 15 20 8 11 1011.1 - 0.0
02/12:00am 11.0 7.2 4.0 62 3.2 ENE 13 20 7 11 1011.3 1012.2 0.0
 
Date/Time
EST
Temp
°C
App
Temp
°C
Dew
Point
Rel
Hum
%
Delta-T
°C
Wind Press
QNH
hPa
Press
MSL
hPa
Rain
since 9 am
mm
Dir
 
Spd
km/h
Gust
km/h
Spd
kts
Gust
kts
01/11:30pm 10.9 7.9 3.9 62 3.1 ENE 9 13 5 7 1011.7 - 0.0
01/11:00pm 11.1 8.4 3.9 61 3.2 E 7 13 4 7 1011.8 - 0.0
01/10:30pm 11.8 8.4 3.8 58 3.6 ENE 11 15 6 8 1011.7 - 0.0
01/10:00pm 12.3 8.5 3.8 56 3.9 ENE 13 19 7 10 1011.6 - 0.0
01/09:30pm 12.9 9.1 3.8 54 4.2 ENE 13 20 7 11 1011.5 - 0.0
01/09:00pm 13.1 8.8 3.2 51 4.5 ENE 15 20 8 11 1011.6 1012.6 0.0
01/08:30pm 13.4 9.9 3.5 51 4.5 E 11 17 6 9 1011.6 - 0.0
01/08:00pm 13.3 9.9 3.9 53 4.3 E 11 15 6 8 1011.5 - 0.0
01/07:30pm 13.0 10.0 3.9 54 4.2 E 9 11 5 6 1011.4 - 0.0
01/07:00pm 13.5 10.4 3.8 52 4.4 E 9 11 5 6 1011.2 - 0.0
01/06:30pm 14.2 11.1 3.7 49 4.8 E 9 11 5 6 1011.1 - 0.0
01/06:00pm 14.9 12.2 3.7 47 5.2 E 7 11 4 6 1011.1 1012.0 0.0
01/05:30pm 15.4 12.2 3.2 44 5.6 ENE 9 15 5 8 1010.8 - 0.0
01/05:00pm 15.6 12.1 3.4 44 5.6 ENE 11 17 6 9 1010.7 - 0.0
01/04:30pm 16.1 12.1 2.9 41 6.1 N 13 20 7 11 1010.8 - 0.0
01/04:00pm 16.4 12.3 2.1 38 6.5 N 13 22 7 12 1011.1 - 0.0
01/03:30pm 16.5 12.4 2.5 39 6.4 N 13 20 7 11 1011.5 - 0.0
01/03:00pm 15.8 11.3 2.2 40 6.1 NNW 15 20 8 11 1011.7 1012.7 0.0
01/02:30pm 15.6 11.6 3.1 43 5.7 NNW 13 22 7 12 1012.0 - 0.0
01/02:00pm 14.9 9.9 3.4 46 5.3 N 19 24 10 13 1012.5 - 0.0
01/01:30pm 14.4 10.6 4.1 50 4.8 NW 13 20 7 11 1013.0 - 0.0
01/01:00pm 13.8 9.2 3.9 51 4.6 NNW 17 24 9 13 1013.7 - 0.0
01/12:30pm 13.6 9.1 4.2 53 4.4 N 17 24 9 13 1014.2 - 0.0
01/12:00pm 12.0 8.1 3.5 56 3.8 N 13 19 7 10 1014.8 1015.7 0.0
01/11:30am 11.4 8.0 4.2 61 3.3 NW 11 20 6 11 1015.0 - 0.0
01/11:00am 10.7 7.0 4.2 64 2.9 NNW 13 19 7 10 1015.3 - 0.0
01/10:30am 9.2 5.8 3.8 69 2.4 N 11 17 6 9 1015.4 - 0.0
01/10:00am 8.8 5.3 3.6 70 2.3 N 11 15 6 8 1016.0 - 0.0
01/09:30am 8.6 5.1 3.6 71 2.2 N 11 19 6 10 1016.1 - 0.0
01/09:00am 6.4 3.7 2.9 78 1.5 N 6 7 3 4 1016.2 1017.2 0.2
01/08:30am 4.9 2.2 2.9 87 0.8 E 6 9 3 5 1015.9 - 0.2
01/08:00am 2.4 -0.4 1.8 96 0.2 E 6 7 3 4 1015.9 - 0.0
01/07:30am 0.4 -2.7 0.1 98 0.1 E 6 7 3 4 1015.6 - 0.0
01/07:00am -0.6 -3.5 -0.9 98 0.1 ESE 4 6 2 3 1015.4 - 0.0
01/06:30am -0.5 -3.7 -0.8 98 0.1 ESE 6 7 3 4 1015.2 - 0.0
01/06:00am -0.9 -4.2 -1.3 97 0.1 ESE 6 7 3 4 1015.1 1016.1 0.0
01/05:30am -0.7 -4.0 -1.0 98 0.1 ESE 6 7 3 4 1015.2 - 0.0
01/05:00am -0.6 -2.7 -0.9 98 0.1 CALM 0 0 0 0 1015.3 - 0.0
01/04:30am -0.7 -2.8 -1.0 98 0.1 CALM 0 0 0 0 1015.3 - 0.0
01/04:00am -1.0 -4.0 -1.6 96 0.2 SE 4 7 2 4 1015.3 - 0.0
01/03:30am -0.1 -2.6 -0.7 96 0.2 ESE 2 6 1 3 1015.4 - 0.0
01/03:00am 0.8 -1.1 0.4 97 0.1 CALM 0 0 0 0 1015.8 1016.8 0.0
01/02:30am -0.1 -2.2 -0.7 96 0.2 CALM 0 0 0 0 1016.4 - 0.0
01/02:00am 0.4 -2.8 -0.3 95 0.3 SE 6 7 3 4 1016.6 - 0.0
01/01:30am 1.5 -0.4 0.8 95 0.3 CALM 0 0 0 0 1016.9 - 0.0
01/01:00am 1.8 -1.2 1.1 95 0.3 ESE 6 7 3 4 1016.9 - 0.0
01/12:30am 1.8 0.0 1.1 95 0.3 CALM 0 0 0 0 1017.2 - 0.0
01/12:00am 1.9 0.1 1.2 95 0.3 CALM 0 0 0 0 1017.5 1018.5 0.0
 
Date/Time
EST
Temp
°C
App
Temp
°C
Dew
Point
Rel
Hum
%
Delta-T
°C
Wind Press
QNH
hPa
Press
MSL
hPa
Rain
since 9 am
mm
Dir
 
Spd
km/h
Gust
km/h
Spd
kts
Gust
kts
31/11:30pm 2.0 0.2 1.1 94 0.3 CALM 0 0 0 0 1017.6 - 0.0
31/11:00pm 2.6 0.9 1.7 94 0.4 CALM 0 6 0 3 1017.7 - 0.0
31/10:30pm 2.1 -0.1 0.8 91 0.5 S 2 7 1 4 1018.0 - 0.0
31/10:00pm 3.8 2.1 2.0 88 0.7 CALM 0 0 0 0 1018.2 - 0.0
31/09:30pm 4.4 1.6 2.1 85 0.9 ESE 6 9 3 5 1018.3 - 0.0
31/09:00pm 5.6 2.3 2.4 80 1.3 S 9 11 5 6 1018.5 1019.6 0.0
31/08:30pm 5.1 2.2 2.5 83 1.1 SSE 7 9 4 5 1018.3 - 0.0
31/08:00pm 4.6 1.7 1.5 80 1.2 SSE 6 7 3 4 1018.2 - 0.0
31/07:30pm 6.6 3.6 2.3 74 1.8 SSE 7 9 4 5 1017.7 - 0.0
31/07:00pm 7.3 4.4 2.6 72 2.0 SE 7 13 4 7 1017.5 - 0.0
31/06:30pm 7.6 4.7 2.7 71 2.1 S 7 15 4 8 1017.5 - 0.0
31/06:00pm 8.5 4.1 2.7 67 2.5 SE 15 22 8 12 1017.4 1018.6 0.0
31/05:30pm 9.6 5.7 3.4 65 2.7 SE 13 22 7 12 1017.5 - 0.0
31/05:00pm 10.3 5.6 3.3 62 3.1 SSE 17 22 9 12 1017.4 - 0.0
31/04:30pm 10.7 6.0 3.3 60 3.3 SE 17 24 9 13 1017.4 - 0.0
31/04:00pm 10.9 6.6 3.0 58 3.5 SSE 15 22 8 12 1017.6 - 0.0
31/03:30pm 10.9 6.5 2.7 57 3.6 SSE 15 26 8 14 1017.6 - 0.0
31/03:00pm 10.8 6.4 2.6 57 3.6 SSE 15 22 8 12 1017.7 1018.9 0.0
31/02:30pm 10.9 7.6 2.7 57 3.6 SSE 9 17 5 9 1018.1 - 0.0
31/02:00pm 10.8 6.5 3.1 59 3.4 SSE 15 24 8 13 1018.4 - 0.0
31/01:30pm 10.2 6.3 3.3 62 3.0 SSE 13 22 7 12 1018.8 - 0.0
31/01:00pm 10.1 7.3 3.4 63 3.0 SSW 7 17 4 9 1019.2 - 0.0
31/12:30pm 10.1 7.1 4.0 66 2.7 S 9 17 5 9 1019.6 - 0.0
31/12:00pm 9.6 5.8 3.8 67 2.6 S 13 22 7 12 1019.9 1021.1 0.0
31/11:30am 8.5 3.8 3.4 70 2.2 S 17 26 9 14 1020.2 - 0.0
31/11:00am 8.7 5.2 3.5 70 2.3 SSW 11 19 6 10 1020.3 - 0.0
31/10:30am 8.5 4.6 3.6 71 2.1 SSE 13 20 7 11 1020.4 - 0.0
31/10:00am 7.8 3.8 2.7 70 2.2 S 13 19 7 10 1020.6 - 0.0
31/09:30am 7.2 3.2 2.7 73 1.9 S 13 20 7 11 1020.7 - 0.0
31/09:00am 7.1 3.1 3.0 75 1.7 SSE 13 19 7 10 1020.8 1022.0 0.0
31/08:30am 6.4 2.0 2.5 76 1.6 SSE 15 24 8 13 1020.8 - 0.0
31/08:00am 6.2 2.6 2.7 78 1.5 SSE 11 17 6 9 1020.7 - 0.0
31/07:30am 5.8 2.1 2.3 78 1.4 S 11 19 6 10 1020.5 - 0.0
31/07:00am 5.8 2.5 2.4 79 1.4 SSE 9 15 5 8 1020.4 - 0.0
31/06:30am 5.7 1.6 2.4 79 1.4 SSE 13 19 7 10 1020.3 - 0.0
31/06:00am 5.7 2.4 2.4 79 1.4 SSE 9 13 5 7 1020.3 1021.5 0.0
31/05:30am 5.8 1.3 2.4 79 1.4 SSE 15 20 8 11 1020.3 - 0.0
31/05:00am 5.8 1.3 2.4 79 1.4 SSE 15 20 8 11 1020.3 - 0.0
31/04:30am 5.9 1.9 2.9 81 1.3 SSE 13 19 7 10 1020.1 - 0.0
31/04:00am 6.1 2.1 2.9 80 1.3 SSE 13 19 7 10 1020.0 - 0.0
31/03:30am 6.3 2.7 3.1 80 1.4 SSE 11 19 6 10 1020.4 - 0.0
31/03:00am 6.3 2.3 2.9 79 1.4 SSE 13 20 7 11 1020.7 1021.9 0.0
31/02:30am 6.4 3.3 3.4 81 1.3 S 9 17 5 9 1021.1 - 0.0
31/02:00am 6.4 2.5 3.2 80 1.4 S 13 19 7 10 1021.5 - 0.0
31/01:30am 6.5 2.5 2.9 78 1.5 SSE 13 19 7 10 1021.6 - 0.0
31/01:00am 6.5 2.9 2.9 78 1.5 S 11 19 6 10 1021.8 - 0.0
31/12:30am 6.6 2.6 3.0 78 1.5 S 13 20 7 11 1022.0 - 0.0
31/12:00am 6.8 2.8 3.1 77 1.6 S 13 20 7 11 1022.1 1023.4 0.0
 
Date/Time
EST
Temp
°C
App
Temp
°C
Dew
Point
Rel
Hum
%
Delta-T
°C
Wind Press
QNH
hPa
Press
MSL
hPa
Rain
since 9 am
mm
Dir
 
Spd
km/h
Gust
km/h
Spd
kts
Gust
kts
30/11:30pm 7.1 2.0 3.2 76 1.7 SSE 19 24 10 13 1022.2 - 0.0
30/11:00pm 7.3 3.4 3.4 76 1.7 SSE 13 19 7 10 1022.5 - 0.0
30/10:30pm 7.1 3.1 3.0 75 1.7 SSE 13 22 7 12 1022.7 - 0.0
30/10:00pm 7.1 2.7 2.8 74 1.8 SSE 15 22 8 12 1022.8 - 0.0
30/09:30pm 7.6 2.5 2.9 72 2.0 SSE 19 24 10 13 1022.8 - 0.0
30/09:00pm 8.2 3.3 3.9 74 1.9 SSE 19 24 10 13 1022.9 1024.1 0.0
30/08:30pm 8.3 3.7 3.8 73 2.0 SSE 17 24 9 13 1022.8 - 0.0
30/08:00pm 8.6 4.6 4.8 77 1.7 SSE 15 20 8 11 1022.6 - 0.0
30/07:30pm 8.9 4.4 4.1 72 2.1 SSE 17 22 9 12 1022.7 - 0.0
30/07:00pm 9.1 5.8 4.5 73 2.1 SSE 11 15 6 8 1022.6 - 0.0
30/06:30pm 9.2 5.0 4.0 70 2.3 SSE 15 22 8 12 1022.6 - 0.0

Other Formats:

Comma delimited format used in spreadsheet applications
http://www.bom.gov.au/fwo/IDV60801/IDV60801.94836.axf

JavaScript Object Notation format (JSON) in row-major order
http://www.bom.gov.au/fwo/IDV60801/IDV60801.94836.json